Time;durP1;ratioP1;P1;durP2;ratioP2;P2;SDS_P1;SDS_P2;PMS_P1;PMS_P2;Temp;Humidity;BMP_temperature;BMP_pressure;BME280_temperature;BME280_humidity;BME280_pressure;Samples;Min_cycle;Max_cycle;Signal;HPM_P1;HPM_P2
2022/01/17 00:01:51;;;;;;;7.43;2.57;;;6.20;99.90;;;;;;5088440;28;20192;-60
2022/01/17 00:04:18;;;;;;;15.17;3.50;;;6.20;99.90;;;;;;5087442;28;20221;-60
2022/01/17 00:06:46;;;;;;;11.00;2.87;;;6.20;99.90;;;;;;5085107;28;20212;-61
2022/01/17 00:09:14;;;;;;;5.60;2.37;;;6.30;99.90;;;;;;5085914;28;20255;-62
2022/01/17 00:11:44;;;;;;;8.97;2.93;;;6.30;99.90;;;;;;5086438;28;20298;-60
2022/01/17 00:14:17;;;;;;;6.17;2.57;;;6.30;99.90;;;;;;5086176;28;20185;-61
2022/01/17 00:16:49;;;;;;;11.70;2.80;;;6.30;99.90;;;;;;5088035;28;20185;-60
2022/01/17 00:22:01;;;;;;;7.10;2.53;;;6.40;99.90;;;;;;5061481;28;20203;-61
2022/01/17 00:24:28;;;;;;;7.40;2.27;;;6.40;99.90;;;;;;5083816;28;20300;-61
2022/01/17 00:26:55;;;;;;;7.00;2.53;;;6.30;99.90;;;;;;5074567;28;20202;-61
2022/01/17 00:29:23;;;;;;;10.10;2.90;;;6.40;99.90;;;;;;5079586;28;20202;-62
2022/01/17 00:31:51;;;;;;;5.90;2.07;;;6.40;99.90;;;;;;5088254;28;20195;-61
2022/01/17 00:34:18;;;;;;;5.33;1.80;;;6.40;99.90;;;;;;5083238;28;20258;-61
2022/01/17 00:36:45;;;;;;;8.67;2.07;;;6.40;99.90;;;;;;5072967;28;20281;-61
2022/01/17 00:39:12;;;;;;;7.93;2.60;;;6.40;99.90;;;;;;5079487;28;20216;-61
2022/01/17 00:41:40;;;;;;;13.77;2.10;;;6.40;99.90;;;;;;5081153;28;20681;-61
2022/01/17 00:44:07;;;;;;;2.10;1.50;;;6.40;99.90;;;;;;5082034;28;20242;-61
2022/01/17 00:46:36;;;;;;;10.87;2.07;;;6.40;99.90;;;;;;5077580;28;20206;-61
2022/01/17 00:49:04;;;;;;;7.53;1.93;;;6.40;99.90;;;;;;5082731;28;20195;-61
2022/01/17 00:51:31;;;;;;;9.87;1.87;;;6.40;99.90;;;;;;5080824;28;20281;-61
2022/01/17 00:53:59;;;;;;;5.37;1.67;;;6.40;99.90;;;;;;5083959;28;20229;-61
2022/01/17 00:56:26;;;;;;;5.53;1.70;;;6.30;99.90;;;;;;5081310;28;20283;-61
2022/01/17 00:58:53;;;;;;;6.57;1.70;;;6.30;99.90;;;;;;5080926;28;20237;-61
2022/01/17 01:01:20;;;;;;;11.47;2.03;;;6.30;99.90;;;;;;5067291;28;20923;-61
2022/01/17 01:03:49;;;;;;;14.83;2.17;;;6.30;99.90;;;;;;5081091;28;20218;-61
2022/01/17 01:06:16;;;;;;;5.13;1.60;;;6.40;99.90;;;;;;5083536;28;20200;-62
2022/01/17 01:08:44;;;;;;;10.03;1.67;;;6.40;99.90;;;;;;5083962;28;20196;-62
2022/01/17 01:11:11;;;;;;;10.43;1.97;;;6.40;99.90;;;;;;5084299;28;20309;-62
2022/01/17 01:13:39;;;;;;;7.87;1.80;;;6.40;99.90;;;;;;5077660;28;20727;-62
2022/01/17 01:16:22;;;;;;;6.40;1.30;;;6.40;99.90;;;;;;5080523;28;20587;-62
2022/01/17 01:21:45;;;;;;;17.17;2.37;;;6.40;99.90;;;;;;5081463;28;20221;-61
2022/01/17 01:29:48;;;;;;;14.43;1.90;;;6.30;99.90;;;;;;5079893;28;20208;-61
2022/01/17 01:32:19;;;;;;;6.93;1.87;;;6.40;99.90;;;;;;5075689;28;20191;-60
2022/01/17 01:34:52;;;;;;;10.23;1.40;;;6.30;99.90;;;;;;5081707;28;20197;-61
2022/01/17 01:37:19;;;;;;;8.47;1.70;;;6.30;99.90;;;;;;5079985;28;20209;-60
2022/01/17 01:39:49;;;;;;;7.67;1.60;;;6.30;99.90;;;;;;5089932;28;20229;-60
2022/01/17 01:42:18;;;;;;;8.37;2.07;;;6.30;99.90;;;;;;5090421;28;20194;-61
2022/01/17 01:44:48;;;;;;;10.90;1.73;;;6.30;99.90;;;;;;5088850;28;20850;-60
2022/01/17 01:47:15;;;;;;;13.73;2.00;;;6.40;99.90;;;;;;5089211;28;20189;-61
2022/01/17 01:49:43;;;;;;;11.10;1.77;;;6.30;99.90;;;;;;5073984;28;20232;-60
2022/01/17 01:52:11;;;;;;;12.30;2.03;;;6.30;99.90;;;;;;5083025;28;20191;-61
2022/01/17 01:54:39;;;;;;;19.77;1.90;;;6.40;99.90;;;;;;5085443;28;20599;-61
2022/01/17 01:57:06;;;;;;;14.10;1.90;;;6.40;99.90;;;;;;5069727;28;20691;-61
2022/01/17 01:59:33;;;;;;;8.90;1.70;;;6.40;99.90;;;;;;5092875;28;20206;-61
2022/01/17 02:02:01;;;;;;;8.23;2.10;;;6.40;99.90;;;;;;5089375;28;20560;-61
2022/01/17 02:04:29;;;;;;;10.03;1.37;;;6.40;99.90;;;;;;5078006;28;20227;-61
2022/01/17 02:06:56;;;;;;;11.07;1.50;;;6.40;99.90;;;;;;5085445;28;20193;-61
2022/01/17 02:09:25;;;;;;;12.43;2.20;;;6.40;99.90;;;;;;5086206;28;20747;-61
2022/01/17 02:11:53;;;;;;;15.27;2.20;;;6.40;99.90;;;;;;5092169;28;20276;-62
2022/01/17 02:14:20;;;;;;;19.97;2.00;;;6.40;99.90;;;;;;5085568;28;20622;-61
2022/01/17 02:16:50;;;;;;;14.60;2.50;;;6.40;99.90;;;;;;5073493;28;20222;-63
2022/01/17 02:19:21;;;;;;;12.70;2.10;;;6.40;99.90;;;;;;5079991;28;20197;-61
2022/01/17 02:21:50;;;;;;;10.83;2.00;;;6.40;99.90;;;;;;5090134;28;20675;-61
2022/01/17 02:24:20;;;;;;;12.70;1.97;;;6.40;99.90;;;;;;5082293;28;20220;-61
2022/01/17 02:26:49;;;;;;;6.33;1.70;;;6.40;99.90;;;;;;5080968;28;20196;-60
2022/01/17 02:29:17;;;;;;;6.40;1.67;;;6.40;99.90;;;;;;5090728;28;20701;-61
2022/01/17 02:31:45;;;;;;;8.67;2.10;;;6.50;99.90;;;;;;5080499;28;20286;-60
2022/01/17 02:34:13;;;;;;;8.97;1.80;;;6.50;99.90;;;;;;5057134;28;20570;-61
2022/01/17 02:36:41;;;;;;;7.60;2.10;;;6.50;99.90;;;;;;5089301;28;20273;-61
2022/01/17 02:39:10;;;;;;;10.07;1.90;;;6.50;99.90;;;;;;5088529;28;20199;-60
2022/01/17 02:41:40;;;;;;;6.67;1.20;;;6.50;99.90;;;;;;5084662;28;20225;-61
2022/01/17 02:44:08;;;;;;;5.27;1.40;;;6.50;99.90;;;;;;5084008;28;20215;-60
2022/01/17 02:46:35;;;;;;;15.90;2.37;;;6.50;99.90;;;;;;5082533;28;20250;-62
2022/01/17 02:49:05;;;;;;;15.20;2.07;;;6.60;99.90;;;;;;5082131;28;20295;-61
2022/01/17 02:51:33;;;;;;;15.30;1.80;;;6.50;99.90;;;;;;5076360;28;20286;-61
2022/01/17 02:54:00;;;;;;;11.80;1.90;;;6.50;99.90;;;;;;5064938;28;20736;-61
2022/01/17 02:56:29;;;;;;;5.47;1.53;;;6.50;99.90;;;;;;5082770;28;20350;-61
2022/01/17 02:58:57;;;;;;;12.93;1.70;;;6.50;99.90;;;;;;5091343;28;20185;-61
2022/01/17 03:01:26;;;;;;;7.20;1.33;;;6.50;99.90;;;;;;5087690;28;20221;-62
2022/01/17 03:03:54;;;;;;;6.40;1.30;;;6.60;99.90;;;;;;5062814;28;20231;-61
2022/01/17 03:06:22;;;;;;;12.00;1.97;;;6.60;99.90;;;;;;5084320;28;20242;-61
2022/01/17 03:08:50;;;;;;;5.93;1.37;;;6.60;99.90;;;;;;5080857;28;20210;-62
2022/01/17 03:11:20;;;;;;;9.00;1.30;;;6.60;99.90;;;;;;5071890;28;20238;-62
2022/01/17 03:13:50;;;;;;;4.87;1.47;;;6.50;99.90;;;;;;5066991;28;20202;-61
2022/01/17 03:16:19;;;;;;;5.17;1.30;;;6.50;99.90;;;;;;5072980;28;20539;-62
2022/01/17 03:18:50;;;;;;;9.40;1.83;;;6.60;99.90;;;;;;5067375;28;20305;-61
2022/01/17 03:21:18;;;;;;;7.93;2.00;;;6.60;99.90;;;;;;5073017;28;20267;-62
2022/01/17 03:23:47;;;;;;;4.27;0.97;;;6.50;99.90;;;;;;5071435;28;20474;-60
2022/01/17 03:26:14;;;;;;;13.83;1.87;;;6.60;99.90;;;;;;5080417;28;20203;-62
2022/01/17 03:28:42;;;;;;;7.27;1.53;;;6.50;99.90;;;;;;5057250;28;20249;-61
2022/01/17 03:31:11;;;;;;;9.47;1.80;;;6.50;99.90;;;;;;5076535;28;20271;-61
2022/01/17 03:33:40;;;;;;;6.77;1.23;;;6.50;99.90;;;;;;5083921;28;20217;-62
2022/01/17 03:36:07;;;;;;;2.20;0.93;;;6.50;99.90;;;;;;5083458;28;20225;-61
2022/01/17 03:38:35;;;;;;;5.80;0.97;;;6.50;99.90;;;;;;5083091;28;20277;-61
2022/01/17 03:41:04;;;;;;;6.50;1.20;;;6.60;99.90;;;;;;5076370;28;20199;-61
2022/01/17 03:43:31;;;;;;;10.87;1.43;;;6.60;99.90;;;;;;5090835;28;20226;-61
2022/01/17 03:45:59;;;;;;;5.30;1.13;;;6.50;99.90;;;;;;5072607;28;20260;-63
2022/01/17 03:48:29;;;;;;;15.43;2.13;;;6.60;99.90;;;;;;5085551;28;20194;-62
2022/01/17 03:50:58;;;;;;;12.20;1.33;;;6.50;99.90;;;;;;5072461;28;20203;-62
2022/01/17 03:53:26;;;;;;;6.10;1.30;;;6.60;99.90;;;;;;5070894;28;20601;-60
2022/01/17 03:55:54;;;;;;;5.23;1.00;;;6.60;99.90;;;;;;5057536;28;20262;-61
2022/01/17 03:58:22;;;;;;;4.80;0.90;;;6.60;99.90;;;;;;5051231;28;20199;-60
2022/01/17 04:00:51;;;;;;;7.93;1.47;;;6.60;99.90;;;;;;5048783;28;20627;-61
2022/01/17 04:03:19;;;;;;;11.20;1.17;;;6.60;99.90;;;;;;5049391;28;20253;-62
2022/01/17 04:05:48;;;;;;;7.67;1.33;;;6.60;99.90;;;;;;5050860;28;20215;-61
2022/01/17 04:08:15;;;;;;;4.73;1.00;;;6.60;99.90;;;;;;5049020;28;20191;-62
2022/01/17 04:10:42;;;;;;;6.00;1.53;;;6.60;99.90;;;;;;5049185;28;20230;-61
2022/01/17 04:13:11;;;;;;;4.03;1.13;;;6.60;99.90;;;;;;5040688;28;20275;-62
2022/01/17 04:15:39;;;;;;;9.57;1.53;;;6.60;99.90;;;;;;5037990;28;20213;-61
2022/01/17 04:18:07;;;;;;;5.33;1.10;;;6.60;99.90;;;;;;5049843;28;20278;-62
2022/01/17 04:20:36;;;;;;;5.53;1.13;;;6.60;99.90;;;;;;5061367;28;20216;-62
2022/01/17 04:23:07;;;;;;;5.90;1.27;;;6.60;99.90;;;;;;5043114;28;20289;-62
2022/01/17 04:25:36;;;;;;;6.93;1.17;;;6.60;99.90;;;;;;5049500;28;20675;-61
2022/01/17 04:28:05;;;;;;;2.03;0.87;;;6.60;99.90;;;;;;5048215;28;20213;-62
2022/01/17 04:30:32;;;;;;;5.23;1.07;;;6.70;99.90;;;;;;5050153;28;20196;-61
2022/01/17 04:33:00;;;;;;;4.57;1.10;;;6.70;99.90;;;;;;5049662;28;20223;-62
2022/01/17 04:35:29;;;;;;;3.30;0.80;;;6.70;99.90;;;;;;5050159;28;20285;-61
2022/01/17 04:37:59;;;;;;;8.67;1.13;;;6.70;99.90;;;;;;5049667;28;20198;-61
2022/01/17 04:40:34;;;;;;;3.13;0.90;;;6.70;99.90;;;;;;5049708;28;20192;-60
2022/01/17 04:43:03;;;;;;;3.17;0.93;;;6.80;99.90;;;;;;5049290;28;20199;-61
2022/01/17 04:45:30;;;;;;;7.07;0.97;;;6.70;99.90;;;;;;5050406;28;20216;-61
2022/01/17 04:47:57;;;;;;;3.70;1.03;;;6.80;99.90;;;;;;5043359;28;20284;-61
2022/01/17 04:50:26;;;;;;;5.77;1.47;;;6.80;99.90;;;;;;5049508;28;20201;-60
2022/01/17 04:52:56;;;;;;;4.67;0.87;;;6.90;99.90;;;;;;5046108;28;20288;-61
2022/01/17 04:55:24;;;;;;;7.10;1.37;;;6.80;99.90;;;;;;5051419;28;20224;-61
2022/01/17 04:57:55;;;;;;;3.50;1.10;;;6.80;99.90;;;;;;5083869;28;20219;-61
2022/01/17 05:00:25;;;;;;;5.07;1.00;;;6.90;99.90;;;;;;5083196;28;20677;-61
2022/01/17 05:02:52;;;;;;;8.60;0.90;;;6.90;99.90;;;;;;5080062;28;20200;-61
2022/01/17 05:05:20;;;;;;;2.57;0.70;;;6.90;99.90;;;;;;5059358;28;20226;-61
2022/01/17 05:07:47;;;;;;;2.10;0.70;;;6.90;99.90;;;;;;5080180;28;20204;-61
2022/01/17 05:10:17;;;;;;;7.90;1.40;;;7.00;99.90;;;;;;5065847;28;20219;-61
2022/01/17 05:12:45;;;;;;;4.77;1.23;;;7.00;99.90;;;;;;5083467;28;20199;-60
2022/01/17 05:15:31;;;;;;;3.63;1.00;;;7.00;99.90;;;;;;5065138;28;20244;-61
2022/01/17 05:20:41;;;;;;;5.47;1.00;;;7.10;99.90;;;;;;5073870;28;20203;-62
2022/01/17 05:23:09;;;;;;;5.10;1.10;;;7.10;99.90;;;;;;5069064;28;20212;-61
2022/01/17 05:25:37;;;;;;;1.93;0.70;;;7.10;99.90;;;;;;5076257;28;20217;-61
2022/01/17 05:28:05;;;;;;;2.30;0.70;;;7.10;99.90;;;;;;5093397;28;20276;-61
2022/01/17 05:30:34;;;;;;;2.50;0.97;;;7.20;99.90;;;;;;5094096;28;20196;-61
2022/01/17 05:33:01;;;;;;;1.33;0.67;;;7.20;99.90;;;;;;5072742;28;20283;-62
2022/01/17 05:35:28;;;;;;;3.03;0.70;;;7.20;99.90;;;;;;5083046;28;20214;-62
2022/01/17 05:37:55;;;;;;;1.87;0.93;;;6.90;99.90;;;;;;5092871;28;20286;-61
2022/01/17 05:40:23;;;;;;;0.83;0.80;;;6.50;99.90;;;;;;5083759;28;20237;-61
2022/01/17 05:42:50;;;;;;;0.50;0.50;;;6.20;99.90;;;;;;5090421;28;20193;-61
2022/01/17 05:45:18;;;;;;;0.63;0.63;;;5.90;99.90;;;;;;5087494;28;20225;-61
2022/01/17 05:47:48;;;;;;;1.20;1.10;;;5.70;99.90;;;;;;5068461;28;20301;-61
2022/01/17 05:50:16;;;;;;;0.57;0.57;;;5.40;99.90;;;;;;5078277;28;20215;-61
2022/01/17 05:52:43;;;;;;;1.10;0.40;;;5.30;99.90;;;;;;5080580;28;20193;-62
2022/01/17 05:55:14;;;;;;;0.40;0.40;;;5.10;99.90;;;;;;5091677;28;20271;-61
2022/01/17 05:57:42;;;;;;;0.73;0.40;;;5.10;99.90;;;;;;5084460;28;20286;-60
2022/01/17 06:00:11;;;;;;;0.30;0.30;;;5.00;99.90;;;;;;5079415;28;20201;-61
2022/01/17 06:02:39;;;;;;;0.33;0.30;;;4.90;99.90;;;;;;5087128;28;20233;-61
2022/01/17 06:05:09;;;;;;;0.43;0.33;;;4.90;99.90;;;;;;5078817;28;20209;-62
2022/01/17 06:07:36;;;;;;;0.20;0.20;;;4.80;99.90;;;;;;5079220;28;20192;-61
2022/01/17 06:10:04;;;;;;;0.37;0.33;;;4.80;99.90;;;;;;5085072;28;20620;-62
2022/01/17 06:12:31;;;;;;;0.47;0.43;;;4.80;99.90;;;;;;5085109;28;20737;-62
2022/01/17 06:14:59;;;;;;;0.33;0.33;;;4.90;99.90;;;;;;5073657;28;20665;-61
2022/01/17 06:17:26;;;;;;;0.20;0.20;;;4.90;99.90;;;;;;5086128;28;20188;-61
2022/01/17 06:19:53;;;;;;;0.77;0.60;;;4.90;99.90;;;;;;5088590;28;20281;-61
2022/01/17 06:22:22;;;;;;;0.40;0.40;;;4.90;99.90;;;;;;5079234;28;20217;-61
2022/01/17 06:24:49;;;;;;;1.13;0.50;;;4.90;99.90;;;;;;5081278;28;20298;-61
2022/01/17 06:27:17;;;;;;;0.70;0.40;;;4.90;99.90;;;;;;5080829;28;20228;-61
2022/01/17 06:29:44;;;;;;;0.97;0.50;;;4.90;99.90;;;;;;5057078;28;20270;-61
2022/01/17 06:32:11;;;;;;;0.53;0.53;;;4.90;99.90;;;;;;5075346;28;20246;-61
2022/01/17 06:34:39;;;;;;;0.30;0.30;;;4.90;99.90;;;;;;5073818;28;20213;-61
2022/01/17 06:37:06;;;;;;;1.90;0.80;;;4.90;99.90;;;;;;5063829;28;20249;-61
2022/01/17 06:39:34;;;;;;;1.53;0.70;;;4.90;99.90;;;;;;5076354;28;20270;-61
2022/01/17 06:42:02;;;;;;;0.67;0.57;;;5.00;99.90;;;;;;5087983;28;20191;-61
2022/01/17 06:44:29;;;;;;;2.07;0.60;;;5.00;99.90;;;;;;5086152;28;20201;-60
2022/01/17 06:46:57;;;;;;;1.10;0.60;;;5.00;99.90;;;;;;5068879;28;20228;-59
2022/01/17 06:49:24;;;;;;;1.20;0.70;;;5.00;99.90;;;;;;5076895;28;20193;-60
2022/01/17 06:51:52;;;;;;;1.50;0.60;;;5.00;99.90;;;;;;5080151;28;20660;-61
2022/01/17 06:54:19;;;;;;;0.53;0.53;;;5.10;99.90;;;;;;5083662;28;20676;-59
2022/01/17 06:56:48;;;;;;;0.47;0.47;;;5.10;99.90;;;;;;5091724;28;20225;-61
2022/01/17 06:59:16;;;;;;;0.40;0.40;;;5.10;99.90;;;;;;5079090;28;20284;-61
2022/01/17 07:01:44;;;;;;;0.70;0.50;;;5.10;99.90;;;;;;5086819;28;20579;-60
2022/01/17 07:04:12;;;;;;;0.73;0.63;;;5.20;99.90;;;;;;5084558;28;20193;-60
2022/01/17 07:06:40;;;;;;;1.67;0.87;;;5.20;99.90;;;;;;5082493;28;20209;-60
2022/01/17 07:09:09;;;;;;;1.63;1.00;;;5.20;99.90;;;;;;5079592;28;20272;-60
2022/01/17 07:11:39;;;;;;;3.57;0.97;;;5.10;99.90;;;;;;5089149;28;20197;-60
2022/01/17 07:14:09;;;;;;;2.00;0.93;;;5.20;99.90;;;;;;5080602;28;20276;-60
2022/01/17 07:16:37;;;;;;;1.70;0.83;;;5.10;99.90;;;;;;5078059;28;20197;-62
2022/01/17 07:19:05;;;;;;;1.53;0.80;;;5.10;99.90;;;;;;5084978;28;20220;-61
2022/01/17 07:21:33;;;;;;;2.83;0.90;;;5.10;99.90;;;;;;5083144;28;20202;-61
2022/01/17 07:24:01;;;;;;;2.27;1.20;;;5.10;99.90;;;;;;5085990;28;20562;-61
2022/01/17 07:26:28;;;;;;;1.93;1.33;;;5.10;99.90;;;;;;5087079;28;20208;-61
2022/01/17 07:28:55;;;;;;;1.20;0.97;;;5.10;99.90;;;;;;5079779;28;20208;-62
2022/01/17 07:31:24;;;;;;;3.03;1.10;;;5.10;99.90;;;;;;5055353;28;20660;-61
2022/01/17 07:33:51;;;;;;;2.20;0.90;;;5.10;99.90;;;;;;5089830;28;20664;-61
2022/01/17 07:36:20;;;;;;;0.77;0.70;;;5.10;99.90;;;;;;5079906;28;20196;-61
2022/01/17 07:38:48;;;;;;;1.80;0.70;;;5.10;99.90;;;;;;5090534;28;20201;-61
2022/01/17 07:41:16;;;;;;;0.90;0.70;;;5.20;99.90;;;;;;5091283;28;20193;-61
2022/01/17 07:43:44;;;;;;;0.67;0.67;;;5.10;99.90;;;;;;5081735;28;20563;-61
2022/01/17 07:46:23;;;;;;;2.90;0.70;;;5.10;99.90;;;;;;5080241;28;20212;-61
2022/01/17 07:49:09;;;;;;;1.50;0.80;;;5.10;99.90;;;;;;5086449;28;20192;-60
2022/01/17 07:51:38;;;;;;;1.67;0.90;;;5.10;99.90;;;;;;5086122;28;20230;-61
2022/01/17 07:54:07;;;;;;;1.40;0.90;;;5.10;99.90;;;;;;5070592;28;20209;-61
2022/01/17 07:56:34;;;;;;;8.43;0.90;;;5.10;99.90;;;;;;5084845;28;20235;-61
2022/01/17 07:59:02;;;;;;;0.67;0.67;;;5.10;99.90;;;;;;5075365;28;20188;-61
2022/01/17 08:01:30;;;;;;;0.50;0.50;;;5.00;99.90;;;;;;5066261;28;20283;-61
2022/01/17 08:03:58;;;;;;;1.90;0.70;;;5.10;99.90;;;;;;5086474;22;20286;-71
2022/01/17 08:06:25;;;;;;;1.03;0.90;;;5.10;99.90;;;;;;5068538;28;20235;-71
2022/01/17 08:08:55;;;;;;;2.07;0.60;;;5.20;99.90;;;;;;5068482;28;20198;-71
2022/01/17 08:11:32;;;;;;;2.40;0.80;;;5.20;99.40;;;;;;5065573;28;20208;-69
2022/01/17 08:13:59;;;;;;;0.93;0.60;;;5.20;98.80;;;;;;5062084;28;20200;-71
2022/01/17 08:16:29;;;;;;;1.87;0.70;;;5.20;99.10;;;;;;5052120;28;20193;-71
2022/01/17 08:18:58;;;;;;;2.63;0.73;;;5.20;98.70;;;;;;5068766;28;20203;-71
2022/01/17 08:21:25;;;;;;;2.33;1.10;;;5.10;97.70;;;;;;5080931;28;20224;-71
2022/01/17 08:23:53;;;;;;;2.77;0.90;;;5.10;97.30;;;;;;5068979;28;20201;-71
2022/01/17 08:26:21;;;;;;;1.07;0.80;;;5.10;95.70;;;;;;5073167;28;20205;-70
2022/01/17 08:28:52;;;;;;;3.37;0.80;;;5.00;95.90;;;;;;5051693;28;20213;-71
2022/01/17 08:31:19;;;;;;;1.93;1.00;;;5.10;96.20;;;;;;5068776;28;20189;-71
2022/01/17 08:33:46;;;;;;;1.77;0.90;;;5.10;95.10;;;;;;5069482;28;20656;-71
2022/01/17 08:36:19;;;;;;;1.10;0.70;;;5.10;94.40;;;;;;5070408;28;20346;-72
2022/01/17 08:38:47;;;;;;;4.00;1.00;;;5.10;94.20;;;;;;5070637;28;20678;-71
2022/01/17 08:41:16;;;;;;;2.67;1.10;;;5.20;94.00;;;;;;5070475;28;20287;-71
2022/01/17 08:43:43;;;;;;;1.30;1.00;;;5.20;93.30;;;;;;5070133;28;20197;-71
2022/01/17 08:46:10;;;;;;;3.47;1.00;;;5.20;93.60;;;;;;5070863;28;20208;-71
2022/01/17 08:48:39;;;;;;;3.03;1.17;;;5.20;92.90;;;;;;5067506;28;20194;-71
2022/01/17 08:51:07;;;;;;;1.53;1.00;;;5.30;92.30;;;;;;5069276;28;20216;-71
2022/01/17 08:53:36;;;;;;;2.73;1.20;;;5.30;92.20;;;;;;5053211;28;20718;-71
2022/01/17 08:56:04;;;;;;;1.57;1.00;;;5.40;92.20;;;;;;5053361;28;20312;-72
2022/01/17 08:58:31;;;;;;;1.53;0.80;;;5.10;91.90;;;;;;5074282;28;20193;-71
2022/01/17 09:00:59;;;;;;;1.53;0.83;;;5.50;92.00;;;;;;5074619;28;20208;-71
2022/01/17 09:03:26;;;;;;;1.60;0.70;;;5.50;91.50;;;;;;5073111;28;20236;-71
2022/01/17 09:05:54;;;;;;;2.57;0.77;;;5.50;91.70;;;;;;5074129;28;20238;-71
2022/01/17 09:08:23;;;;;;;3.20;0.90;;;5.60;91.10;;;;;;5074247;28;20217;-72
2022/01/17 09:10:55;;;;;;;0.70;0.70;;;5.70;90.60;;;;;;5074262;28;20203;-73
2022/01/17 09:13:23;;;;;;;1.70;0.70;;;5.70;90.20;;;;;;5073633;28;20255;-73
2022/01/17 09:15:51;;;;;;;2.30;0.93;;;5.70;90.20;;;;;;5074127;28;20220;-72
2022/01/17 09:18:20;;;;;;;2.40;0.90;;;5.80;88.10;;;;;;5073440;28;20280;-70
2022/01/17 09:20:48;;;;;;;2.83;0.70;;;5.80;87.50;;;;;;5055301;28;20224;-71
2022/01/17 09:23:15;;;;;;;2.53;0.87;;;5.90;85.80;;;;;;5074397;28;20197;-72
2022/01/17 09:25:42;;;;;;;5.60;0.80;;;5.90;85.00;;;;;;5073849;28;20225;-71
2022/01/17 09:28:11;;;;;;;3.73;0.97;;;5.90;85.30;;;;;;5073650;28;20224;-72
2022/01/17 09:30:39;;;;;;;2.13;0.90;;;5.90;84.00;;;;;;5056096;28;20293;-71
2022/01/17 09:33:07;;;;;;;2.07;0.97;;;6.00;82.60;;;;;;5055732;28;20553;-72
2022/01/17 09:35:34;;;;;;;2.17;1.10;;;5.90;81.20;;;;;;5073530;28;20197;-72
2022/01/17 09:38:02;;;;;;;2.53;0.90;;;5.90;81.70;;;;;;5067500;28;20226;-72
2022/01/17 09:40:30;;;;;;;4.00;0.70;;;6.00;81.30;;;;;;5073669;28;20277;-71
2022/01/17 09:42:59;;;;;;;3.27;0.70;;;5.90;79.70;;;;;;5073064;28;20193;-71
2022/01/17 09:45:27;;;;;;;4.77;0.80;;;5.90;78.50;;;;;;5073382;28;20227;-71
2022/01/17 09:47:58;;;;;;;1.47;0.80;;;6.00;79.30;;;;;;5072837;28;20232;-71
2022/01/17 09:50:33;;;;;;;9.47;1.10;;;6.00;79.60;;;;;;5073018;28;20293;-72
2022/01/17 09:53:02;;;;;;;9.63;1.10;;;6.10;79.00;;;;;;5055512;28;20300;-71
2022/01/17 09:55:31;;;;;;;1.30;0.70;;;6.20;77.40;;;;;;5072723;28;20190;-71
2022/01/17 09:58:04;;;;;;;2.53;0.80;;;6.30;76.60;;;;;;5072762;28;20276;-71
2022/01/17 10:00:35;;;;;;;1.70;0.70;;;6.40;74.70;;;;;;5073547;28;20225;-69
2022/01/17 10:03:06;;;;;;;1.27;0.57;;;6.30;71.50;;;;;;5071918;28;20312;-71
2022/01/17 10:05:35;;;;;;;3.70;0.83;;;6.30;72.80;;;;;;5072950;28;20199;-71
2022/01/17 10:08:05;;;;;;;0.70;0.70;;;6.30;71.50;;;;;;5072842;28;20205;-70
2022/01/17 10:10:46;;;;;;;1.13;0.77;;;6.30;72.20;;;;;;5064492;28;20185;-70
2022/01/17 10:13:18;;;;;;;2.37;0.97;;;6.30;72.60;;;;;;5072610;28;20681;-71
2022/01/17 10:16:06;;;;;;;0.77;0.77;;;6.30;70.60;;;;;;5073084;28;20199;-70
2022/01/17 10:18:37;;;;;;;0.83;0.70;;;6.40;72.10;;;;;;5062092;28;20195;-71
2022/01/17 10:21:11;;;;;;;1.57;0.60;;;6.50;72.40;;;;;;5072691;28;20198;-71
2022/01/17 10:24:06;;;;;;;0.60;0.60;;;6.40;71.70;;;;;;5072403;28;20193;-71
2022/01/17 10:35:23;;;;;;;5.50;1.00;;;6.70;69.80;;;;;;5071644;28;20197;-72
2022/01/17 10:38:12;;;;;;;12.27;1.47;;;6.80;68.90;;;;;;5054453;28;20293;-71
2022/01/17 10:40:43;;;;;;;2.17;0.90;;;6.90;67.70;;;;;;5049228;28;20313;-71
2022/01/17 10:43:20;;;;;;;2.10;0.80;;;6.90;66.50;;;;;;5064403;28;20240;-71
2022/01/17 10:45:48;;;;;;;4.33;1.30;;;6.90;66.10;;;;;;5054048;28;20202;-72
2022/01/17 10:48:16;;;;;;;9.77;1.83;;;6.90;66.10;;;;;;5071383;28;20201;-72
2022/01/17 10:50:48;;;;;;;1.97;1.20;;;6.80;66.60;;;;;;5070642;28;20202;-72
2022/01/17 10:53:17;;;;;;;2.13;1.40;;;6.80;66.50;;;;;;5072245;28;20214;-72
2022/01/17 10:55:49;;;;;;;3.57;1.23;;;6.80;66.50;;;;;;5072440;28;20248;-71
2022/01/17 10:58:21;;;;;;;4.83;1.70;;;6.80;66.50;;;;;;5071425;28;20189;-70
2022/01/17 11:00:51;;;;;;;2.83;1.30;;;6.80;65.80;;;;;;5054270;28;20211;-71
2022/01/17 11:03:21;;;;;;;4.27;1.60;;;6.80;66.20;;;;;;5052021;28;20737;-71
2022/01/17 11:05:52;;;;;;;7.90;2.50;;;6.80;66.60;;;;;;5053788;28;20285;-72
2022/01/17 11:08:21;;;;;;;5.00;1.50;;;6.90;65.70;;;;;;5053305;28;20214;-72
2022/01/17 11:10:52;;;;;;;1.80;1.07;;;6.80;66.40;;;;;;5054137;28;20211;-72
2022/01/17 11:13:21;;;;;;;11.83;2.17;;;6.80;67.30;;;;;;5071482;28;20198;-70
2022/01/17 11:15:53;;;;;;;5.07;1.83;;;6.80;66.70;;;;;;5071616;28;20204;-72
2022/01/17 11:18:27;;;;;;;4.80;1.50;;;6.80;66.50;;;;;;5053217;28;20206;-71
2022/01/17 11:20:58;;;;;;;2.50;1.10;;;6.80;66.50;;;;;;5070599;28;20189;-71
2022/01/17 11:23:27;;;;;;;3.63;1.43;;;6.70;67.00;;;;;;5043652;28;20222;-71
2022/01/17 11:25:56;;;;;;;6.43;1.80;;;6.60;66.90;;;;;;5053604;28;20212;-71
2022/01/17 11:28:28;;;;;;;3.27;2.07;;;6.50;67.10;;;;;;5052817;28;20702;-70
2022/01/17 11:30:59;;;;;;;4.63;1.10;;;6.40;67.40;;;;;;5071603;28;20216;-71
2022/01/17 11:33:28;;;;;;;2.00;0.97;;;6.40;67.20;;;;;;5052691;28;20199;-71
2022/01/17 11:35:56;;;;;;;2.20;0.90;;;6.30;67.30;;;;;;5070705;28;20273;-71
2022/01/17 11:38:25;;;;;;;7.57;2.50;;;6.30;67.90;;;;;;5064683;28;20195;-71
2022/01/17 11:40:53;;;;;;;3.57;1.50;;;6.20;67.50;;;;;;5071257;28;20203;-72
2022/01/17 11:43:23;;;;;;;5.43;1.23;;;6.20;68.00;;;;;;5052388;28;20204;-71
2022/01/17 11:45:52;;;;;;;6.80;1.80;;;6.20;68.40;;;;;;5052916;28;20580;-71
2022/01/17 11:48:25;;;;;;;6.43;1.43;;;6.10;68.70;;;;;;5070375;28;20230;-71
2022/01/17 11:50:57;;;;;;;2.53;0.97;;;6.10;68.50;;;;;;5052231;28;20295;-71
2022/01/17 11:53:43;;;;;;;3.00;1.23;;;6.10;69.20;;;;;;5065069;28;20203;-71
2022/01/17 11:56:14;;;;;;;3.13;0.90;;;6.00;69.70;;;;;;5053009;28;20210;-71
2022/01/17 11:58:46;;;;;;;5.43;1.50;;;6.00;69.90;;;;;;5070033;28;20276;-70
2022/01/17 12:01:15;;;;;;;4.83;1.97;;;6.00;69.70;;;;;;5070586;28;20208;-71
2022/01/17 12:03:46;;;;;;;1.77;1.40;;;6.00;70.10;;;;;;5069497;28;20597;-71
2022/01/17 12:06:28;;;;;;;2.17;1.17;;;6.00;70.70;;;;;;5040140;28;20316;-71
2022/01/17 12:09:19;;;;;;;10.60;2.20;;;5.90;71.00;;;;;;5051965;28;20197;-71
2022/01/17 12:11:47;;;;;;;7.60;1.70;;;5.90;71.00;;;;;;5071432;28;20646;-71
2022/01/17 12:14:29;;;;;;;2.50;0.90;;;5.90;71.40;;;;;;5063910;28;20208;-71
2022/01/17 12:17:28;;;;;;;4.77;1.70;;;5.90;71.60;;;;;;5065258;28;20190;-71
2022/01/17 12:20:22;;;;;;;2.60;1.07;;;6.00;71.80;;;;;;5069699;28;20193;-71
2022/01/17 12:22:57;;;;;;;6.80;2.07;;;6.00;72.10;;;;;;5063413;28;20198;-71
2022/01/17 12:25:34;;;;;;;6.07;2.20;;;6.00;72.00;;;;;;5067979;28;20189;-71
2022/01/17 12:28:25;;;;;;;7.90;2.30;;;6.00;72.20;;;;;;5061914;28;20206;-71
2022/01/17 12:30:57;;;;;;;6.33;2.40;;;6.00;72.20;;;;;;5058024;28;20244;-71
2022/01/17 12:33:34;;;;;;;4.03;1.90;;;6.00;72.50;;;;;;5050533;28;20217;-72
2022/01/17 12:36:04;;;;;;;4.60;2.20;;;6.10;72.80;;;;;;5052490;28;20206;-72
2022/01/17 12:38:40;;;;;;;1.60;1.50;;;6.10;72.00;;;;;;5051830;28;20657;-71
2022/01/17 12:41:28;;;;;;;6.67;2.23;;;6.10;72.60;;;;;;5070477;28;20201;-71
2022/01/17 12:43:57;;;;;;;9.57;2.83;;;6.20;72.50;;;;;;5052393;28;20226;-71
2022/01/17 12:46:27;;;;;;;6.10;2.80;;;6.10;72.40;;;;;;5069197;28;20331;-71
2022/01/17 12:48:54;;;;;;;3.83;2.00;;;6.10;71.60;;;;;;5070249;28;20225;-71
2022/01/17 12:51:23;;;;;;;2.63;1.50;;;6.20;71.70;;;;;;5051318;28;20226;-71
2022/01/17 12:53:53;;;;;;;3.83;1.70;;;6.20;71.40;;;;;;5070260;28;20202;-71
2022/01/17 12:56:21;;;;;;;6.77;2.33;;;6.20;70.90;;;;;;5052787;28;20237;-71
2022/01/17 12:58:48;;;;;;;4.47;1.80;;;6.30;70.80;;;;;;5070289;28;20191;-71
2022/01/17 13:01:18;;;;;;;6.27;1.70;;;5.40;69.60;;;;;;5051477;28;20197;-70
2022/01/17 13:03:49;;;;;;;9.50;2.77;;;6.20;69.50;;;;;;5051839;28;20233;-71
2022/01/17 13:06:18;;;;;;;5.13;2.70;;;6.10;69.40;;;;;;5070474;28;20189;-70
2022/01/17 13:08:48;;;;;;;2.80;1.70;;;6.10;69.80;;;;;;5051334;28;20305;-71
2022/01/17 13:11:17;;;;;;;3.03;1.33;;;6.10;70.20;;;;;;5052482;28;20672;-70
2022/01/17 13:13:46;;;;;;;4.20;1.10;;;6.20;69.70;;;;;;5069753;28;20631;-71
2022/01/17 13:16:15;;;;;;;5.00;2.10;;;6.10;69.70;;;;;;5069378;28;20327;-70
2022/01/17 13:18:44;;;;;;;3.67;2.03;;;6.10;70.30;;;;;;5069559;28;20547;-70
2022/01/17 13:21:11;;;;;;;5.43;2.37;;;6.10;70.60;;;;;;5069922;28;20193;-70
2022/01/17 13:23:45;;;;;;;4.50;1.63;;;6.00;70.20;;;;;;5051217;28;20546;-71
2022/01/17 13:26:13;;;;;;;6.80;1.70;;;6.00;70.50;;;;;;5052239;28;20201;-70
2022/01/17 13:28:47;;;;;;;3.73;1.77;;;6.00;71.10;;;;;;5070001;28;20293;-71
2022/01/17 13:31:18;;;;;;;6.63;2.33;;;6.00;71.30;;;;;;5069458;28;20219;-71